sensor_id;sensor_type;location;lat;lon;timestamp;P1;durP1;ratioP1;P2;durP2;ratioP2
58294;SDS011;45705;55.592;37.460;2023-04-06T00:01:39;10.32;;;5.55;;
58294;SDS011;45705;55.592;37.460;2023-04-06T00:04:05;6.10;;;4.90;;
58294;SDS011;45705;55.592;37.460;2023-04-06T00:06:31;9.70;;;6.00;;
58294;SDS011;45705;55.592;37.460;2023-04-06T00:08:57;6.50;;;5.00;;
58294;SDS011;45705;55.592;37.460;2023-04-06T00:11:24;9.32;;;5.28;;
58294;SDS011;45705;55.592;37.460;2023-04-06T00:13:50;7.50;;;5.22;;
58294;SDS011;45705;55.592;37.460;2023-04-06T00:16:16;14.07;;;5.53;;
58294;SDS011;45705;55.592;37.460;2023-04-06T00:18:41;8.88;;;6.10;;
58294;SDS011;45705;55.592;37.460;2023-04-06T00:21:07;12.48;;;6.80;;
58294;SDS011;45705;55.592;37.460;2023-04-06T00:23:33;12.13;;;6.60;;
58294;SDS011;45705;55.592;37.460;2023-04-06T00:25:59;15.93;;;7.35;;
58294;SDS011;45705;55.592;37.460;2023-04-06T00:28:25;11.10;;;5.97;;
58294;SDS011;45705;55.592;37.460;2023-04-06T00:30:52;9.48;;;6.28;;
58294;SDS011;45705;55.592;37.460;2023-04-06T00:33:20;14.82;;;6.05;;
58294;SDS011;45705;55.592;37.460;2023-04-06T00:35:46;12.40;;;5.65;;
58294;SDS011;45705;55.592;37.460;2023-04-06T00:38:13;7.15;;;5.82;;
58294;SDS011;45705;55.592;37.460;2023-04-06T00:40:41;8.25;;;5.47;;
58294;SDS011;45705;55.592;37.460;2023-04-06T00:43:07;10.35;;;6.18;;
58294;SDS011;45705;55.592;37.460;2023-04-06T00:45:34;9.90;;;6.00;;
58294;SDS011;45705;55.592;37.460;2023-04-06T00:48:00;7.70;;;5.22;;
58294;SDS011;45705;55.592;37.460;2023-04-06T00:50:30;18.02;;;6.45;;
58294;SDS011;45705;55.592;37.460;2023-04-06T00:52:56;12.18;;;6.38;;
58294;SDS011;45705;55.592;37.460;2023-04-06T00:55:26;11.27;;;6.03;;
58294;SDS011;45705;55.592;37.460;2023-04-06T00:57:53;11.85;;;5.93;;
58294;SDS011;45705;55.592;37.460;2023-04-06T01:00:19;8.70;;;5.35;;
58294;SDS011;45705;55.592;37.460;2023-04-06T01:02:48;10.30;;;6.32;;
58294;SDS011;45705;55.592;37.460;2023-04-06T01:05:17;18.63;;;5.72;;
58294;SDS011;45705;55.592;37.460;2023-04-06T01:07:53;16.80;;;6.68;;
58294;SDS011;45705;55.592;37.460;2023-04-06T01:10:23;9.85;;;5.85;;
58294;SDS011;45705;55.592;37.460;2023-04-06T01:13:06;12.23;;;6.07;;
58294;SDS011;45705;55.592;37.460;2023-04-06T01:18:16;17.98;;;6.60;;
58294;SDS011;45705;55.592;37.460;2023-04-06T01:20:50;14.70;;;6.60;;
58294;SDS011;45705;55.592;37.460;2023-04-06T01:23:17;11.05;;;5.50;;
58294;SDS011;45705;55.592;37.460;2023-04-06T01:25:45;7.68;;;5.28;;
58294;SDS011;45705;55.592;37.460;2023-04-06T01:28:11;9.95;;;5.75;;
58294;SDS011;45705;55.592;37.460;2023-04-06T01:30:55;11.20;;;6.60;;
58294;SDS011;45705;55.592;37.460;2023-04-06T01:33:38;7.97;;;5.95;;
58294;SDS011;45705;55.592;37.460;2023-04-06T01:36:07;8.13;;;6.18;;
58294;SDS011;45705;55.592;37.460;2023-04-06T01:38:33;9.55;;;6.50;;
58294;SDS011;45705;55.592;37.460;2023-04-06T01:41:01;10.18;;;5.93;;
58294;SDS011;45705;55.592;37.460;2023-04-06T01:43:32;11.95;;;6.53;;
58294;SDS011;45705;55.592;37.460;2023-04-06T01:46:07;14.13;;;7.35;;
58294;SDS011;45705;55.592;37.460;2023-04-06T01:48:37;14.40;;;6.75;;
58294;SDS011;45705;55.592;37.460;2023-04-06T01:51:14;10.75;;;6.82;;
58294;SDS011;45705;55.592;37.460;2023-04-06T01:53:51;21.42;;;7.93;;
58294;SDS011;45705;55.592;37.460;2023-04-06T01:56:19;22.75;;;6.82;;
58294;SDS011;45705;55.592;37.460;2023-04-06T01:59:08;13.75;;;6.80;;
58294;SDS011;45705;55.592;37.460;2023-04-06T02:01:38;16.35;;;6.40;;
58294;SDS011;45705;55.592;37.460;2023-04-06T02:04:04;17.67;;;6.78;;
58294;SDS011;45705;55.592;37.460;2023-04-06T02:06:30;16.10;;;6.88;;
58294;SDS011;45705;55.592;37.460;2023-04-06T02:08:57;14.38;;;6.55;;
58294;SDS011;45705;55.592;37.460;2023-04-06T02:11:23;15.13;;;7.40;;
58294;SDS011;45705;55.592;37.460;2023-04-06T02:13:52;11.18;;;6.55;;
58294;SDS011;45705;55.592;37.460;2023-04-06T02:16:38;10.40;;;6.80;;
58294;SDS011;45705;55.592;37.460;2023-04-06T02:19:03;17.38;;;6.70;;
58294;SDS011;45705;55.592;37.460;2023-04-06T02:21:29;11.95;;;6.47;;
58294;SDS011;45705;55.592;37.460;2023-04-06T02:23:55;12.95;;;7.45;;
58294;SDS011;45705;55.592;37.460;2023-04-06T02:26:21;14.95;;;8.02;;
58294;SDS011;45705;55.592;37.460;2023-04-06T02:28:46;11.07;;;6.72;;
58294;SDS011;45705;55.592;37.460;2023-04-06T02:31:12;13.75;;;6.68;;
58294;SDS011;45705;55.592;37.460;2023-04-06T02:33:40;11.10;;;6.65;;
58294;SDS011;45705;55.592;37.460;2023-04-06T02:36:07;13.00;;;7.32;;
58294;SDS011;45705;55.592;37.460;2023-04-06T02:38:33;12.73;;;7.50;;
58294;SDS011;45705;55.592;37.460;2023-04-06T02:41:00;12.10;;;6.60;;
58294;SDS011;45705;55.592;37.460;2023-04-06T02:43:27;11.25;;;7.20;;
58294;SDS011;45705;55.592;37.460;2023-04-06T02:46:05;16.55;;;7.78;;
58294;SDS011;45705;55.592;37.460;2023-04-06T02:48:34;18.60;;;7.88;;
58294;SDS011;45705;55.592;37.460;2023-04-06T02:51:02;13.45;;;6.93;;
58294;SDS011;45705;55.592;37.460;2023-04-06T02:53:28;13.52;;;7.47;;
58294;SDS011;45705;55.592;37.460;2023-04-06T02:55:54;16.00;;;7.18;;
58294;SDS011;45705;55.592;37.460;2023-04-06T02:58:23;12.52;;;7.03;;
58294;SDS011;45705;55.592;37.460;2023-04-06T03:00:53;11.77;;;6.47;;
58294;SDS011;45705;55.592;37.460;2023-04-06T03:03:18;14.43;;;7.43;;
58294;SDS011;45705;55.592;37.460;2023-04-06T03:05:45;14.65;;;7.55;;
58294;SDS011;45705;55.592;37.460;2023-04-06T03:08:13;14.60;;;6.53;;
58294;SDS011;45705;55.592;37.460;2023-04-06T03:10:44;12.60;;;6.53;;
58294;SDS011;45705;55.592;37.460;2023-04-06T03:13:10;9.15;;;6.10;;
58294;SDS011;45705;55.592;37.460;2023-04-06T03:15:49;15.65;;;7.35;;
58294;SDS011;45705;55.592;37.460;2023-04-06T03:18:21;11.23;;;6.80;;
58294;SDS011;45705;55.592;37.460;2023-04-06T03:20:49;16.60;;;6.97;;
58294;SDS011;45705;55.592;37.460;2023-04-06T03:23:18;8.93;;;6.72;;
58294;SDS011;45705;55.592;37.460;2023-04-06T03:25:46;12.68;;;6.55;;
58294;SDS011;45705;55.592;37.460;2023-04-06T03:28:18;13.00;;;6.35;;
58294;SDS011;45705;55.592;37.460;2023-04-06T03:30:56;8.60;;;5.32;;
58294;SDS011;45705;55.592;37.460;2023-04-06T03:33:40;19.67;;;7.13;;
58294;SDS011;45705;55.592;37.460;2023-04-06T03:36:09;22.10;;;6.80;;
58294;SDS011;45705;55.592;37.460;2023-04-06T03:38:39;14.70;;;6.10;;
58294;SDS011;45705;55.592;37.460;2023-04-06T03:41:09;11.82;;;6.30;;
58294;SDS011;45705;55.592;37.460;2023-04-06T03:43:35;14.05;;;6.75;;
58294;SDS011;45705;55.592;37.460;2023-04-06T03:46:01;11.25;;;6.55;;
58294;SDS011;45705;55.592;37.460;2023-04-06T03:48:27;11.27;;;5.50;;
58294;SDS011;45705;55.592;37.460;2023-04-06T03:50:53;12.23;;;5.70;;
58294;SDS011;45705;55.592;37.460;2023-04-06T03:53:18;14.02;;;6.50;;
58294;SDS011;45705;55.592;37.460;2023-04-06T03:55:44;12.30;;;5.82;;
58294;SDS011;45705;55.592;37.460;2023-04-06T03:58:10;25.33;;;6.22;;
58294;SDS011;45705;55.592;37.460;2023-04-06T04:00:35;15.05;;;6.32;;
58294;SDS011;45705;55.592;37.460;2023-04-06T04:03:01;20.15;;;7.18;;
58294;SDS011;45705;55.592;37.460;2023-04-06T04:05:27;15.10;;;6.20;;
58294;SDS011;45705;55.592;37.460;2023-04-06T04:07:53;14.00;;;5.97;;
58294;SDS011;45705;55.592;37.460;2023-04-06T04:10:24;7.72;;;4.93;;
58294;SDS011;45705;55.592;37.460;2023-04-06T04:12:50;11.05;;;5.65;;
58294;SDS011;45705;55.592;37.460;2023-04-06T04:15:16;8.07;;;4.97;;
58294;SDS011;45705;55.592;37.460;2023-04-06T04:17:42;14.32;;;5.50;;
58294;SDS011;45705;55.592;37.460;2023-04-06T04:20:12;8.57;;;5.15;;
58294;SDS011;45705;55.592;37.460;2023-04-06T04:22:38;8.25;;;4.82;;
58294;SDS011;45705;55.592;37.460;2023-04-06T04:25:05;13.68;;;5.95;;
58294;SDS011;45705;55.592;37.460;2023-04-06T04:27:33;11.68;;;5.05;;
58294;SDS011;45705;55.592;37.460;2023-04-06T04:29:59;12.10;;;5.63;;
58294;SDS011;45705;55.592;37.460;2023-04-06T04:32:25;8.25;;;5.30;;
58294;SDS011;45705;55.592;37.460;2023-04-06T04:34:53;8.52;;;4.38;;
58294;SDS011;45705;55.592;37.460;2023-04-06T04:37:31;12.20;;;5.88;;
58294;SDS011;45705;55.592;37.460;2023-04-06T04:39:57;15.25;;;5.85;;
58294;SDS011;45705;55.592;37.460;2023-04-06T04:42:23;16.25;;;5.00;;
58294;SDS011;45705;55.592;37.460;2023-04-06T04:47:30;8.63;;;4.67;;
58294;SDS011;45705;55.592;37.460;2023-04-06T04:49:56;8.60;;;5.30;;
58294;SDS011;45705;55.592;37.460;2023-04-06T04:52:23;13.73;;;6.13;;
58294;SDS011;45705;55.592;37.460;2023-04-06T04:55:09;9.27;;;5.40;;
58294;SDS011;45705;55.592;37.460;2023-04-06T04:57:35;8.35;;;4.32;;
58294;SDS011;45705;55.592;37.460;2023-04-06T05:00:03;7.67;;;4.70;;
58294;SDS011;45705;55.592;37.460;2023-04-06T05:02:30;13.88;;;5.50;;
58294;SDS011;45705;55.592;37.460;2023-04-06T05:05:23;16.95;;;5.50;;
58294;SDS011;45705;55.592;37.460;2023-04-06T05:07:50;18.88;;;5.75;;
58294;SDS011;45705;55.592;37.460;2023-04-06T05:10:38;14.00;;;6.00;;
58294;SDS011;45705;55.592;37.460;2023-04-06T05:13:04;19.48;;;5.90;;
58294;SDS011;45705;55.592;37.460;2023-04-06T05:15:30;18.38;;;5.85;;
58294;SDS011;45705;55.592;37.460;2023-04-06T05:18:12;10.70;;;4.45;;
58294;SDS011;45705;55.592;37.460;2023-04-06T05:20:38;12.68;;;5.90;;
58294;SDS011;45705;55.592;37.460;2023-04-06T05:23:04;14.57;;;5.75;;
58294;SDS011;45705;55.592;37.460;2023-04-06T05:25:30;11.68;;;5.55;;
58294;SDS011;45705;55.592;37.460;2023-04-06T05:28:10;9.73;;;5.53;;
58294;SDS011;45705;55.592;37.460;2023-04-06T05:30:43;17.20;;;6.05;;
58294;SDS011;45705;55.592;37.460;2023-04-06T05:33:11;21.65;;;5.63;;
58294;SDS011;45705;55.592;37.460;2023-04-06T05:35:57;8.32;;;5.32;;
58294;SDS011;45705;55.592;37.460;2023-04-06T05:38:26;15.85;;;5.93;;
58294;SDS011;45705;55.592;37.460;2023-04-06T05:40:54;9.07;;;5.65;;
58294;SDS011;45705;55.592;37.460;2023-04-06T05:43:23;23.13;;;6.32;;
58294;SDS011;45705;55.592;37.460;2023-04-06T05:45:53;13.30;;;5.30;;
58294;SDS011;45705;55.592;37.460;2023-04-06T05:48:19;14.68;;;5.25;;
58294;SDS011;45705;55.592;37.460;2023-04-06T05:50:48;12.75;;;5.60;;
58294;SDS011;45705;55.592;37.460;2023-04-06T05:53:23;13.88;;;5.35;;
58294;SDS011;45705;55.592;37.460;2023-04-06T05:55:54;15.38;;;5.57;;
58294;SDS011;45705;55.592;37.460;2023-04-06T05:58:20;9.38;;;6.03;;
58294;SDS011;45705;55.592;37.460;2023-04-06T06:00:49;9.95;;;5.30;;
58294;SDS011;45705;55.592;37.460;2023-04-06T06:03:16;15.30;;;5.93;;
58294;SDS011;45705;55.592;37.460;2023-04-06T06:05:47;12.25;;;5.28;;
58294;SDS011;45705;55.592;37.460;2023-04-06T06:08:20;9.07;;;5.47;;
58294;SDS011;45705;55.592;37.460;2023-04-06T06:10:47;19.25;;;6.40;;
58294;SDS011;45705;55.592;37.460;2023-04-06T06:13:15;19.13;;;6.07;;
58294;SDS011;45705;55.592;37.460;2023-04-06T06:15:41;12.50;;;5.63;;
58294;SDS011;45705;55.592;37.460;2023-04-06T06:18:07;14.43;;;5.43;;
58294;SDS011;45705;55.592;37.460;2023-04-06T06:20:34;10.73;;;4.85;;
58294;SDS011;45705;55.592;37.460;2023-04-06T06:23:03;15.40;;;5.28;;
58294;SDS011;45705;55.592;37.460;2023-04-06T06:25:29;20.40;;;5.38;;
58294;SDS011;45705;55.592;37.460;2023-04-06T06:27:56;12.63;;;5.30;;
58294;SDS011;45705;55.592;37.460;2023-04-06T06:30:22;15.77;;;5.28;;
58294;SDS011;45705;55.592;37.460;2023-04-06T06:32:49;14.38;;;4.80;;
58294;SDS011;45705;55.592;37.460;2023-04-06T06:35:15;20.38;;;5.35;;
58294;SDS011;45705;55.592;37.460;2023-04-06T06:37:41;20.08;;;5.85;;
58294;SDS011;45705;55.592;37.460;2023-04-06T06:40:11;14.15;;;5.80;;
58294;SDS011;45705;55.592;37.460;2023-04-06T06:42:39;20.38;;;5.10;;
58294;SDS011;45705;55.592;37.460;2023-04-06T06:45:16;12.15;;;5.97;;
58294;SDS011;45705;55.592;37.460;2023-04-06T06:47:42;14.65;;;5.45;;
58294;SDS011;45705;55.592;37.460;2023-04-06T06:50:10;13.30;;;5.82;;
58294;SDS011;45705;55.592;37.460;2023-04-06T06:52:36;12.45;;;5.80;;
58294;SDS011;45705;55.592;37.460;2023-04-06T06:55:01;12.75;;;6.40;;
58294;SDS011;45705;55.592;37.460;2023-04-06T06:57:28;18.23;;;6.68;;
58294;SDS011;45705;55.592;37.460;2023-04-06T06:59:53;15.98;;;5.05;;
58294;SDS011;45705;55.592;37.460;2023-04-06T07:02:20;17.85;;;5.40;;
58294;SDS011;45705;55.592;37.460;2023-04-06T07:04:49;19.90;;;5.30;;
58294;SDS011;45705;55.592;37.460;2023-04-06T07:07:15;19.15;;;5.43;;
58294;SDS011;45705;55.592;37.460;2023-04-06T07:09:42;9.80;;;4.68;;
58294;SDS011;45705;55.592;37.460;2023-04-06T07:12:07;18.02;;;6.05;;
58294;SDS011;45705;55.592;37.460;2023-04-06T07:14:33;25.30;;;6.15;;
58294;SDS011;45705;55.592;37.460;2023-04-06T07:16:59;20.30;;;6.03;;
58294;SDS011;45705;55.592;37.460;2023-04-06T07:19:25;22.83;;;5.90;;
58294;SDS011;45705;55.592;37.460;2023-04-06T07:21:51;24.52;;;6.22;;
58294;SDS011;45705;55.592;37.460;2023-04-06T07:24:17;14.32;;;5.28;;
58294;SDS011;45705;55.592;37.460;2023-04-06T07:26:43;10.20;;;5.30;;
58294;SDS011;45705;55.592;37.460;2023-04-06T07:29:08;13.15;;;5.55;;
58294;SDS011;45705;55.592;37.460;2023-04-06T07:31:34;17.05;;;5.30;;
58294;SDS011;45705;55.592;37.460;2023-04-06T07:34:02;14.55;;;5.35;;
58294;SDS011;45705;55.592;37.460;2023-04-06T07:36:27;26.10;;;6.35;;
58294;SDS011;45705;55.592;37.460;2023-04-06T07:38:53;23.67;;;6.68;;
58294;SDS011;45705;55.592;37.460;2023-04-06T07:41:20;10.23;;;4.93;;
58294;SDS011;45705;55.592;37.460;2023-04-06T07:43:46;18.13;;;5.38;;
58294;SDS011;45705;55.592;37.460;2023-04-06T07:46:12;17.55;;;5.60;;
58294;SDS011;45705;55.592;37.460;2023-04-06T07:48:38;21.60;;;6.50;;
58294;SDS011;45705;55.592;37.460;2023-04-06T07:51:05;15.23;;;5.78;;
58294;SDS011;45705;55.592;37.460;2023-04-06T07:53:35;25.33;;;6.15;;
58294;SDS011;45705;55.592;37.460;2023-04-06T07:56:01;23.58;;;5.57;;
58294;SDS011;45705;55.592;37.460;2023-04-06T07:58:26;18.77;;;6.18;;
58294;SDS011;45705;55.592;37.460;2023-04-06T08:00:52;12.05;;;4.85;;
58294;SDS011;45705;55.592;37.460;2023-04-06T08:03:19;15.48;;;5.50;;
58294;SDS011;45705;55.592;37.460;2023-04-06T08:05:46;22.52;;;5.30;;
58294;SDS011;45705;55.592;37.460;2023-04-06T08:08:12;18.92;;;5.68;;
58294;SDS011;45705;55.592;37.460;2023-04-06T08:10:38;13.45;;;4.47;;
58294;SDS011;45705;55.592;37.460;2023-04-06T08:13:03;11.27;;;4.13;;
58294;SDS011;45705;55.592;37.460;2023-04-06T08:15:29;11.40;;;4.10;;
58294;SDS011;45705;55.592;37.460;2023-04-06T08:17:55;14.32;;;4.65;;
58294;SDS011;45705;55.592;37.460;2023-04-06T08:20:22;16.48;;;4.28;;
58294;SDS011;45705;55.592;37.460;2023-04-06T08:22:48;21.42;;;4.50;;
58294;SDS011;45705;55.592;37.460;2023-04-06T08:25:14;20.00;;;4.57;;
58294;SDS011;45705;55.592;37.460;2023-04-06T08:27:39;20.30;;;5.45;;
58294;SDS011;45705;55.592;37.460;2023-04-06T08:30:05;23.20;;;4.90;;
58294;SDS011;45705;55.592;37.460;2023-04-06T08:32:31;13.52;;;3.92;;
58294;SDS011;45705;55.592;37.460;2023-04-06T08:34:57;26.23;;;5.55;;
58294;SDS011;45705;55.592;37.460;2023-04-06T08:37:22;10.82;;;3.85;;
58294;SDS011;45705;55.592;37.460;2023-04-06T08:39:48;12.02;;;3.45;;
58294;SDS011;45705;55.592;37.460;2023-04-06T08:42:16;18.50;;;4.32;;
58294;SDS011;45705;55.592;37.460;2023-04-06T08:44:45;16.77;;;4.35;;
58294;SDS011;45705;55.592;37.460;2023-04-06T08:47:12;21.50;;;4.05;;
58294;SDS011;45705;55.592;37.460;2023-04-06T08:49:38;13.82;;;3.53;;
58294;SDS011;45705;55.592;37.460;2023-04-06T08:52:07;16.27;;;4.93;;
58294;SDS011;45705;55.592;37.460;2023-04-06T08:54:36;10.50;;;3.60;;
58294;SDS011;45705;55.592;37.460;2023-04-06T08:57:02;13.65;;;3.40;;
58294;SDS011;45705;55.592;37.460;2023-04-06T08:59:29;13.80;;;3.42;;
58294;SDS011;45705;55.592;37.460;2023-04-06T09:01:56;10.98;;;3.60;;
58294;SDS011;45705;55.592;37.460;2023-04-06T09:04:23;12.07;;;3.17;;
58294;SDS011;45705;55.592;37.460;2023-04-06T09:06:48;7.82;;;3.42;;
58294;SDS011;45705;55.592;37.460;2023-04-06T09:09:15;20.35;;;4.20;;
58294;SDS011;45705;55.592;37.460;2023-04-06T09:11:47;14.80;;;3.80;;
58294;SDS011;45705;55.592;37.460;2023-04-06T09:14:15;14.10;;;3.70;;
58294;SDS011;45705;55.592;37.460;2023-04-06T09:16:42;19.65;;;5.03;;
58294;SDS011;45705;55.592;37.460;2023-04-06T09:19:10;19.73;;;3.92;;
58294;SDS011;45705;55.592;37.460;2023-04-06T09:21:37;12.75;;;3.83;;
58294;SDS011;45705;55.592;37.460;2023-04-06T09:24:05;13.50;;;4.18;;
58294;SDS011;45705;55.592;37.460;2023-04-06T09:26:32;16.95;;;4.15;;
58294;SDS011;45705;55.592;37.460;2023-04-06T09:29:09;16.95;;;3.92;;
58294;SDS011;45705;55.592;37.460;2023-04-06T09:31:34;15.75;;;3.78;;
58294;SDS011;45705;55.592;37.460;2023-04-06T09:34:00;12.20;;;3.40;;
58294;SDS011;45705;55.592;37.460;2023-04-06T09:36:30;22.33;;;4.88;;
58294;SDS011;45705;55.592;37.460;2023-04-06T09:38:58;9.30;;;2.83;;
58294;SDS011;45705;55.592;37.460;2023-04-06T09:41:26;8.77;;;3.70;;
58294;SDS011;45705;55.592;37.460;2023-04-06T09:44:09;11.52;;;3.90;;
58294;SDS011;45705;55.592;37.460;2023-04-06T09:46:36;6.20;;;3.10;;
58294;SDS011;45705;55.592;37.460;2023-04-06T09:49:04;8.93;;;3.65;;
58294;SDS011;45705;55.592;37.460;2023-04-06T09:51:35;10.38;;;3.40;;
58294;SDS011;45705;55.592;37.460;2023-04-06T09:54:02;11.30;;;3.72;;
58294;SDS011;45705;55.592;37.460;2023-04-06T09:59:13;13.80;;;3.65;;
58294;SDS011;45705;55.592;37.460;2023-04-06T10:01:42;12.15;;;3.33;;
58294;SDS011;45705;55.592;37.460;2023-04-06T10:04:26;15.38;;;4.20;;
58294;SDS011;45705;55.592;37.460;2023-04-06T10:06:57;14.20;;;3.57;;
58294;SDS011;45705;55.592;37.460;2023-04-06T10:09:25;8.80;;;3.00;;
58294;SDS011;45705;55.592;37.460;2023-04-06T10:12:02;11.45;;;3.08;;
58294;SDS011;45705;55.592;37.460;2023-04-06T10:14:28;14.13;;;3.60;;
58294;SDS011;45705;55.592;37.460;2023-04-06T10:16:55;13.55;;;3.72;;
58294;SDS011;45705;55.592;37.460;2023-04-06T10:19:24;8.48;;;3.40;;
58294;SDS011;45705;55.592;37.460;2023-04-06T10:21:55;19.63;;;4.05;;
58294;SDS011;45705;55.592;37.460;2023-04-06T10:24:25;8.82;;;4.13;;
58294;SDS011;45705;55.592;37.460;2023-04-06T10:27:03;13.40;;;3.67;;
58294;SDS011;45705;55.592;37.460;2023-04-06T10:32:06;5.78;;;3.67;;
58294;SDS011;45705;55.592;37.460;2023-04-06T10:34:35;12.15;;;3.47;;
58294;SDS011;45705;55.592;37.460;2023-04-06T10:37:13;14.48;;;3.45;;
58294;SDS011;45705;55.592;37.460;2023-04-06T10:39:46;9.70;;;3.22;;
58294;SDS011;45705;55.592;37.460;2023-04-06T10:42:23;9.43;;;3.53;;
58294;SDS011;45705;55.592;37.460;2023-04-06T10:44:50;4.82;;;2.92;;
58294;SDS011;45705;55.592;37.460;2023-04-06T10:47:17;16.92;;;4.22;;
58294;SDS011;45705;55.592;37.460;2023-04-06T10:49:43;11.75;;;3.60;;
58294;SDS011;45705;55.592;37.460;2023-04-06T10:52:09;10.88;;;3.85;;
58294;SDS011;45705;55.592;37.460;2023-04-06T10:54:35;7.65;;;3.42;;
58294;SDS011;45705;55.592;37.460;2023-04-06T10:57:08;3.83;;;2.22;;
58294;SDS011;45705;55.592;37.460;2023-04-06T10:59:33;16.33;;;3.88;;
58294;SDS011;45705;55.592;37.460;2023-04-06T11:01:59;13.13;;;3.58;;
58294;SDS011;45705;55.592;37.460;2023-04-06T11:04:25;7.38;;;3.15;;
58294;SDS011;45705;55.592;37.460;2023-04-06T11:06:51;16.33;;;3.58;;
58294;SDS011;45705;55.592;37.460;2023-04-06T11:09:26;16.02;;;3.60;;
58294;SDS011;45705;55.592;37.460;2023-04-06T11:11:53;18.45;;;3.97;;
58294;SDS011;45705;55.592;37.460;2023-04-06T11:14:19;12.80;;;3.10;;
58294;SDS011;45705;55.592;37.460;2023-04-06T11:16:46;10.48;;;3.15;;
58294;SDS011;45705;55.592;37.460;2023-04-06T11:19:15;21.55;;;4.43;;
58294;SDS011;45705;55.592;37.460;2023-04-06T11:21:44;11.80;;;3.13;;
58294;SDS011;45705;55.592;37.460;2023-04-06T11:24:15;14.85;;;3.53;;
58294;SDS011;45705;55.592;37.460;2023-04-06T11:29:17;6.30;;;3.15;;
58294;SDS011;45705;55.592;37.460;2023-04-06T11:31:46;15.02;;;3.63;;
58294;SDS011;45705;55.592;37.460;2023-04-06T11:36:54;12.70;;;3.97;;
58294;SDS011;45705;55.592;37.460;2023-04-06T11:39:25;12.15;;;3.58;;
58294;SDS011;45705;55.592;37.460;2023-04-06T11:41:53;8.77;;;3.55;;
58294;SDS011;45705;55.592;37.460;2023-04-06T11:44:28;18.35;;;3.65;;
58294;SDS011;45705;55.592;37.460;2023-04-06T11:47:05;9.07;;;2.83;;
58294;SDS011;45705;55.592;37.460;2023-04-06T11:49:32;7.85;;;2.38;;
58294;SDS011;45705;55.592;37.460;2023-04-06T11:52:01;10.70;;;3.05;;
58294;SDS011;45705;55.592;37.460;2023-04-06T11:56:57;8.15;;;3.72;;
58294;SDS011;45705;55.592;37.460;2023-04-06T11:59:23;14.52;;;3.65;;
58294;SDS011;45705;55.592;37.460;2023-04-06T12:01:48;12.30;;;4.50;;
58294;SDS011;45705;55.592;37.460;2023-04-06T12:04:14;21.50;;;4.60;;
58294;SDS011;45705;55.592;37.460;2023-04-06T12:06:40;17.50;;;4.45;;
58294;SDS011;45705;55.592;37.460;2023-04-06T12:10:25;14.93;;;3.50;;
58294;SDS011;45705;55.592;37.460;2023-04-06T12:12:51;14.07;;;3.85;;
58294;SDS011;45705;55.592;37.460;2023-04-06T12:15:16;13.75;;;3.47;;
58294;SDS011;45705;55.592;37.460;2023-04-06T12:17:42;13.25;;;3.92;;
58294;SDS011;45705;55.592;37.460;2023-04-06T12:20:08;18.80;;;4.28;;
58294;SDS011;45705;55.592;37.460;2023-04-06T12:22:35;7.85;;;2.67;;
58294;SDS011;45705;55.592;37.460;2023-04-06T12:25:01;8.65;;;3.75;;
58294;SDS011;45705;55.592;37.460;2023-04-06T12:27:28;10.77;;;3.65;;
58294;SDS011;45705;55.592;37.460;2023-04-06T12:29:53;13.52;;;3.45;;
58294;SDS011;45705;55.592;37.460;2023-04-06T12:32:20;11.45;;;3.58;;
58294;SDS011;45705;55.592;37.460;2023-04-06T12:34:46;14.55;;;3.58;;
58294;SDS011;45705;55.592;37.460;2023-04-06T12:37:12;12.95;;;3.58;;
58294;SDS011;45705;55.592;37.460;2023-04-06T12:39:38;10.50;;;3.25;;
58294;SDS011;45705;55.592;37.460;2023-04-06T12:42:03;14.55;;;3.50;;
58294;SDS011;45705;55.592;37.460;2023-04-06T12:44:29;10.80;;;3.10;;
58294;SDS011;45705;55.592;37.460;2023-04-06T12:46:55;10.95;;;3.30;;
58294;SDS011;45705;55.592;37.460;2023-04-06T12:49:21;10.57;;;2.92;;
58294;SDS011;45705;55.592;37.460;2023-04-06T12:51:47;12.82;;;3.08;;
58294;SDS011;45705;55.592;37.460;2023-04-06T12:54:12;10.48;;;3.78;;
58294;SDS011;45705;55.592;37.460;2023-04-06T12:56:38;14.63;;;3.55;;
58294;SDS011;45705;55.592;37.460;2023-04-06T12:59:04;13.50;;;3.30;;
58294;SDS011;45705;55.592;37.460;2023-04-06T13:01:30;6.65;;;3.20;;
58294;SDS011;45705;55.592;37.460;2023-04-06T13:03:56;11.75;;;3.10;;
58294;SDS011;45705;55.592;37.460;2023-04-06T13:06:24;9.60;;;3.47;;
58294;SDS011;45705;55.592;37.460;2023-04-06T13:08:52;14.85;;;4.05;;
58294;SDS011;45705;55.592;37.460;2023-04-06T13:11:18;19.90;;;3.72;;
58294;SDS011;45705;55.592;37.460;2023-04-06T13:13:46;8.38;;;3.78;;
58294;SDS011;45705;55.592;37.460;2023-04-06T13:16:13;13.32;;;3.63;;
58294;SDS011;45705;55.592;37.460;2023-04-06T13:18:38;10.70;;;3.53;;
58294;SDS011;45705;55.592;37.460;2023-04-06T13:21:04;18.42;;;3.90;;
58294;SDS011;45705;55.592;37.460;2023-04-06T13:23:31;16.92;;;3.72;;
58294;SDS011;45705;55.592;37.460;2023-04-06T13:25:58;10.63;;;3.10;;
58294;SDS011;45705;55.592;37.460;2023-04-06T13:28:28;7.90;;;2.90;;
58294;SDS011;45705;55.592;37.460;2023-04-06T13:30:54;9.82;;;2.90;;
58294;SDS011;45705;55.592;37.460;2023-04-06T13:33:21;5.63;;;2.40;;
58294;SDS011;45705;55.592;37.460;2023-04-06T13:35:47;18.35;;;3.50;;
58294;SDS011;45705;55.592;37.460;2023-04-06T13:38:13;11.00;;;3.72;;
58294;SDS011;45705;55.592;37.460;2023-04-06T13:40:39;12.25;;;3.58;;
58294;SDS011;45705;55.592;37.460;2023-04-06T13:43:05;11.57;;;3.53;;
58294;SDS011;45705;55.592;37.460;2023-04-06T13:45:32;22.50;;;3.65;;
58294;SDS011;45705;55.592;37.460;2023-04-06T13:47:57;15.98;;;3.58;;
58294;SDS011;45705;55.592;37.460;2023-04-06T13:50:25;14.73;;;2.53;;
58294;SDS011;45705;55.592;37.460;2023-04-06T13:52:51;13.82;;;2.95;;
58294;SDS011;45705;55.592;37.460;2023-04-06T13:55:17;8.98;;;2.90;;
58294;SDS011;45705;55.592;37.460;2023-04-06T13:57:43;10.68;;;3.30;;
58294;SDS011;45705;55.592;37.460;2023-04-06T14:00:08;16.30;;;2.88;;
58294;SDS011;45705;55.592;37.460;2023-04-06T14:02:36;7.70;;;3.10;;
58294;SDS011;45705;55.592;37.460;2023-04-06T14:05:02;7.45;;;2.70;;
58294;SDS011;45705;55.592;37.460;2023-04-06T14:07:28;11.75;;;3.55;;
58294;SDS011;45705;55.592;37.460;2023-04-06T14:09:54;9.50;;;2.75;;
58294;SDS011;45705;55.592;37.460;2023-04-06T14:12:20;10.73;;;2.95;;
58294;SDS011;45705;55.592;37.460;2023-04-06T14:14:46;10.40;;;2.65;;
58294;SDS011;45705;55.592;37.460;2023-04-06T14:17:11;10.45;;;2.40;;
58294;SDS011;45705;55.592;37.460;2023-04-06T14:19:37;15.82;;;3.90;;
58294;SDS011;45705;55.592;37.460;2023-04-06T14:22:03;16.30;;;2.75;;
58294;SDS011;45705;55.592;37.460;2023-04-06T14:24:29;7.03;;;2.30;;
58294;SDS011;45705;55.592;37.460;2023-04-06T14:26:56;5.65;;;2.40;;
58294;SDS011;45705;55.592;37.460;2023-04-06T14:29:22;7.72;;;2.63;;
58294;SDS011;45705;55.592;37.460;2023-04-06T14:31:47;13.25;;;3.15;;
58294;SDS011;45705;55.592;37.460;2023-04-06T14:34:13;18.48;;;4.63;;
58294;SDS011;45705;55.592;37.460;2023-04-06T14:36:41;18.80;;;3.83;;
58294;SDS011;45705;55.592;37.460;2023-04-06T14:39:09;9.32;;;2.47;;
58294;SDS011;45705;55.592;37.460;2023-04-06T14:41:35;12.07;;;2.45;;
58294;SDS011;45705;55.592;37.460;2023-04-06T14:44:01;11.07;;;2.85;;
58294;SDS011;45705;55.592;37.460;2023-04-06T14:46:27;8.88;;;2.55;;
58294;SDS011;45705;55.592;37.460;2023-04-06T14:48:56;8.02;;;2.70;;